createdAt,value
2019-04-21T00:01:48.989Z,11.10
2019-04-21T00:04:31.818Z,11.10
2019-04-21T00:07:08.746Z,11.20
2019-04-21T00:09:50.568Z,11.10
2019-04-21T00:12:15.347Z,11.00
2019-04-21T00:14:39.740Z,11.00
2019-04-21T00:17:07.811Z,10.90
2019-04-21T00:19:43.002Z,10.90
2019-04-21T00:22:26.124Z,10.80
2019-04-21T00:25:04.381Z,10.80
2019-04-21T00:27:33.778Z,10.70
2019-04-21T00:30:10.953Z,10.70
2019-04-21T00:32:38.141Z,10.70
2019-04-21T00:35:01.646Z,10.60
2019-04-21T00:37:45.399Z,10.50
2019-04-21T00:40:24.031Z,10.50
2019-04-21T00:42:48.918Z,10.40
2019-04-21T00:45:20.710Z,10.40
2019-04-21T00:47:58.715Z,10.30
2019-04-21T00:50:40.406Z,10.30
2019-04-21T00:53:32.061Z,10.30
2019-04-21T00:56:00.106Z,10.20
2019-04-21T01:00:58.082Z,10.10
2019-04-21T01:03:32.374Z,10.10
2019-04-21T01:06:08.245Z,10.00
2019-04-21T01:08:35.677Z,9.90
2019-04-21T01:11:11.359Z,9.80
2019-04-21T01:13:41.669Z,9.80
2019-04-21T01:16:14.702Z,9.80
2019-04-21T01:18:48.313Z,9.70
2019-04-21T01:20:53.293Z,9.70
2019-04-21T01:23:25.480Z,9.70
2019-04-21T01:26:06.818Z,9.70
2019-04-21T01:28:45.134Z,9.70
2019-04-21T01:31:21.374Z,9.70
2019-04-21T01:33:59.088Z,9.70
2019-04-21T01:36:25.796Z,9.60
2019-04-21T01:39:03.458Z,9.60
2019-04-21T01:41:31.469Z,9.60
2019-04-21T01:43:55.584Z,9.60
2019-04-21T01:46:27.263Z,9.50
2019-04-21T01:48:58.074Z,9.40
2019-04-21T01:51:28.408Z,9.30
2019-04-21T01:54:22.202Z,9.40
2019-04-21T01:56:55.485Z,9.30
2019-04-21T01:59:30.486Z,9.40
2019-04-21T02:02:11.000Z,9.40
2019-04-21T02:04:47.435Z,9.30
2019-04-21T02:07:15.059Z,9.40
2019-04-21T02:09:46.365Z,9.30
2019-04-21T02:12:20.483Z,9.40
2019-04-21T02:14:58.185Z,9.20
2019-04-21T02:17:16.315Z,9.10
2019-04-21T02:19:48.050Z,9.10
2019-04-21T02:22:27.425Z,9.20
2019-04-21T02:24:56.798Z,9.20
2019-04-21T02:27:23.487Z,9.20
2019-04-21T02:30:03.461Z,9.20
2019-04-21T02:32:43.876Z,9.10
2019-04-21T02:35:22.495Z,9.00
2019-04-21T02:37:53.562Z,9.10
2019-04-21T02:40:21.554Z,8.90
2019-04-21T02:42:55.648Z,8.80
2019-04-21T02:45:23.267Z,8.80
2019-04-21T02:50:26.506Z,8.70
2019-04-21T02:53:03.222Z,8.70
2019-04-21T02:58:06.119Z,8.60
2019-04-21T03:00:44.944Z,8.60
2019-04-21T03:03:31.693Z,8.60
2019-04-21T03:06:27.279Z,8.60
2019-04-21T03:08:45.568Z,8.50
2019-04-21T03:11:10.987Z,8.30
2019-04-21T03:13:47.148Z,8.20
2019-04-21T03:16:22.871Z,8.10
2019-04-21T03:18:52.495Z,7.90
2019-04-21T03:21:22.272Z,7.90
2019-04-21T03:26:28.219Z,7.70
2019-04-21T03:28:52.301Z,7.50
2019-04-21T03:32:05.554Z,7.50
2019-04-21T03:37:00.689Z,7.20
2019-04-21T03:38:57.314Z,7.20
2019-04-21T03:49:11.936Z,7.20
2019-04-21T03:51:35.856Z,7.10
2019-04-21T03:54:07.583Z,7.10
2019-04-21T03:56:59.200Z,7.10
2019-04-21T03:59:14.272Z,7.00
2019-04-21T04:05:08.970Z,7.00
2019-04-21T04:07:49.845Z,7.00
2019-04-21T04:10:11.770Z,6.90
2019-04-21T04:15:22.815Z,7.10
2019-04-21T04:17:46.133Z,7.30
2019-04-21T04:20:36.935Z,7.50
2019-04-21T04:22:56.241Z,7.50
2019-04-21T04:25:28.068Z,7.80
2019-04-21T04:30:31.137Z,8.20
2019-04-21T04:32:56.654Z,8.40
2019-04-21T04:35:42.398Z,8.50
2019-04-21T04:38:03.756Z,8.60
2019-04-21T04:40:51.780Z,8.60
2019-04-21T04:45:56.459Z,8.90
2019-04-21T04:48:19.477Z,9.00
2019-04-21T04:50:55.407Z,9.00
2019-04-21T04:55:54.756Z,9.40
2019-04-21T04:58:35.607Z,9.80
2019-04-21T05:01:08.671Z,10.10
2019-04-21T05:03:37.152Z,10.60
2019-04-21T05:09:13.145Z,11.60
2019-04-21T05:14:11.625Z,11.60
2019-04-21T05:24:01.253Z,11.80
2019-04-21T05:26:33.322Z,12.30
2019-04-21T05:29:01.894Z,13.20
2019-04-21T05:31:56.681Z,14.40
2019-04-21T05:34:26.922Z,15.70
2019-04-21T05:37:25.953Z,17.50
2019-04-21T05:40:15.790Z,18.00
2019-04-21T05:42:49.593Z,18.20
2019-04-21T05:45:29.696Z,18.40
2019-04-21T05:50:32.118Z,20.30
2019-04-21T05:53:18.965Z,22.30
2019-04-21T05:55:49.162Z,23.60
2019-04-21T05:58:14.629Z,24.90
2019-04-21T06:01:14.885Z,25.50
2019-04-21T06:03:30.666Z,27.10
2019-04-21T06:06:08.681Z,28.50
2019-04-21T06:08:31.308Z,30.10
2019-04-21T06:11:02.107Z,30.60
2019-04-21T06:13:43.927Z,30.20
2019-04-21T06:16:27.798Z,30.50
2019-04-21T06:18:42.081Z,31.00
2019-04-21T06:21:25.125Z,30.50
2019-04-21T06:24:09.117Z,30.70
2019-04-21T06:26:42.730Z,31.20
2019-04-21T06:28:49.088Z,31.70
2019-04-21T06:31:26.939Z,31.80
2019-04-21T06:33:50.820Z,32.00
2019-04-21T06:36:36.162Z,32.50
2019-04-21T06:41:34.371Z,30.70
2019-04-21T06:44:08.206Z,24.50
2019-04-21T06:46:44.724Z,24.20
2019-04-21T06:49:03.082Z,23.30
2019-04-21T06:51:38.942Z,23.10
2019-04-21T06:54:09.614Z,21.80
2019-04-21T06:59:13.496Z,21.80
2019-04-21T07:01:48.762Z,22.10
2019-04-21T07:04:39.561Z,22.20
2019-04-21T07:06:56.338Z,23.60
2019-04-21T07:09:25.472Z,23.50
2019-04-21T07:11:52.050Z,23.30
2019-04-21T07:19:35.163Z,24.30
2019-04-21T07:21:59.220Z,24.00
2019-04-21T07:24:35.496Z,23.80
2019-04-21T07:27:02.631Z,22.90
2019-04-21T07:29:47.395Z,23.50
2019-04-21T07:32:20.972Z,23.30
2019-04-21T07:35:00.315Z,23.90
2019-04-21T07:37:25.567Z,24.00
2019-04-21T07:39:54.575Z,23.90
2019-04-21T07:42:26.732Z,25.00
2019-04-21T07:44:55.353Z,24.90
2019-04-21T07:47:43.267Z,23.70
2019-04-21T07:50:22.652Z,22.40
2019-04-21T07:53:08.475Z,24.10
2019-04-21T07:58:02.595Z,22.90
2019-04-21T08:00:45.072Z,22.70
2019-04-21T08:03:08.115Z,23.50
2019-04-21T08:05:59.178Z,22.30
2019-04-21T08:08:12.157Z,22.50
2019-04-21T08:10:52.589Z,21.10
2019-04-21T08:13:29.492Z,22.50
2019-04-21T08:15:58.288Z,23.50
2019-04-21T08:18:28.362Z,24.10
2019-04-21T08:21:00.776Z,24.20
2019-04-21T08:23:31.478Z,22.70
2019-04-21T08:26:22.678Z,21.70
2019-04-21T08:31:10.257Z,23.10
2019-04-21T08:36:20.833Z,22.60
2019-04-21T08:38:40.275Z,23.00
2019-04-21T08:41:15.506Z,22.20
2019-04-21T08:46:20.139Z,23.20
2019-04-21T08:48:50.805Z,21.90
2019-04-21T08:51:30.249Z,22.60
2019-04-21T08:53:53.586Z,23.40
2019-04-21T08:56:34.162Z,23.10
2019-04-21T08:59:19.174Z,22.30
2019-04-21T09:02:23.554Z,23.10
2019-04-21T09:04:52.791Z,22.60
2019-04-21T09:07:39.526Z,22.50
2019-04-21T09:09:57.446Z,21.70
2019-04-21T09:12:29.475Z,20.10
2019-04-21T09:15:03.312Z,20.00
2019-04-21T09:17:28.410Z,20.90
2019-04-21T09:20:13.964Z,22.80
2019-04-21T09:22:38.244Z,23.30
2019-04-21T09:25:09.155Z,22.40
2019-04-21T09:27:36.775Z,21.70
2019-04-21T09:29:57.615Z,20.60
2019-04-21T09:32:29.127Z,19.90
2019-04-21T09:35:05.677Z,20.40
2019-04-21T09:37:43.494Z,20.30
2019-04-21T09:40:04.928Z,20.90
2019-04-21T09:42:42.147Z,20.50
2019-04-21T09:45:09.989Z,21.00
2019-04-21T09:47:47.060Z,21.20
2019-04-21T09:50:12.097Z,20.70
2019-04-21T09:52:54.207Z,19.30
2019-04-21T09:55:21.537Z,19.70
2019-04-21T09:57:55.319Z,19.70
2019-04-21T10:00:24.782Z,19.40
2019-04-21T10:02:59.949Z,19.40
2019-04-21T10:05:22.825Z,19.00
2019-04-21T10:07:53.153Z,18.70
2019-04-21T10:10:23.233Z,19.30
2019-04-21T10:12:53.971Z,20.00
2019-04-21T10:15:26.274Z,20.00
2019-04-21T10:17:58.432Z,20.10
2019-04-21T10:20:28.590Z,20.70
2019-04-21T10:22:59.456Z,21.00
2019-04-21T10:25:30.501Z,20.70
2019-04-21T10:28:03.281Z,19.30
2019-04-21T10:30:36.762Z,18.90
2019-04-21T10:33:08.337Z,19.10
2019-04-21T10:35:41.348Z,19.00
2019-04-21T10:38:22.737Z,18.90
2019-04-21T10:40:45.560Z,18.20
2019-04-21T10:43:18.947Z,18.20
2019-04-21T10:45:46.874Z,18.60
2019-04-21T10:48:16.865Z,18.80
2019-04-21T10:50:49.398Z,19.40
2019-04-21T10:53:31.252Z,19.00
2019-04-21T10:56:12.200Z,19.20
2019-04-21T10:58:36.178Z,18.90
2019-04-21T11:01:31.597Z,18.70
2019-04-21T11:04:19.562Z,18.70
2019-04-21T11:06:42.253Z,18.40
2019-04-21T11:09:14.089Z,18.50
2019-04-21T11:11:46.469Z,18.90
2019-04-21T11:14:15.510Z,18.50
2019-04-21T11:16:47.515Z,18.70
2019-04-21T11:19:17.841Z,18.50
2019-04-21T11:21:49.198Z,18.30
2019-04-21T11:24:19.066Z,18.30
2019-04-21T11:26:49.681Z,18.30
2019-04-21T11:29:21.121Z,18.80
2019-04-21T11:31:51.329Z,19.40
2019-04-21T11:34:21.311Z,19.20
2019-04-21T11:36:52.166Z,19.60
2019-04-21T11:39:42.219Z,19.70
2019-04-21T11:42:10.083Z,19.60
2019-04-21T11:44:41.695Z,19.60
2019-04-21T11:47:22.700Z,19.30
2019-04-21T11:49:53.002Z,19.30
2019-04-21T11:52:22.893Z,19.00
2019-04-21T11:54:53.134Z,18.60
2019-04-21T11:57:28.005Z,18.60
2019-04-21T11:59:57.612Z,18.90
2019-04-21T12:02:29.766Z,19.00
2019-04-21T12:04:59.589Z,19.00
2019-04-21T12:07:35.315Z,19.30
2019-04-21T12:10:06.355Z,19.10
2019-04-21T12:12:37.146Z,19.10
2019-04-21T12:15:08.121Z,18.80
2019-04-21T12:17:39.674Z,18.70
2019-04-21T12:20:10.623Z,19.10
2019-04-21T12:22:41.231Z,18.80
2019-04-21T12:25:15.525Z,18.80
2019-04-21T12:27:45.696Z,18.80
2019-04-21T12:30:16.076Z,18.70
2019-04-21T12:32:53.912Z,19.20
2019-04-21T12:35:23.876Z,18.80
2019-04-21T12:37:55.026Z,18.70
2019-04-21T12:40:26.276Z,18.70
2019-04-21T12:42:56.790Z,19.30
2019-04-21T12:45:28.152Z,19.40
2019-04-21T12:47:58.079Z,19.40
2019-04-21T12:50:27.925Z,19.50
2019-04-21T12:52:57.835Z,19.40
2019-04-21T12:55:31.619Z,19.50
2019-04-21T12:58:01.409Z,19.50
2019-04-21T13:00:31.438Z,19.50
2019-04-21T13:03:03.658Z,19.00
2019-04-21T13:05:35.764Z,19.00
2019-04-21T13:08:07.073Z,19.40
2019-04-21T13:10:38.139Z,18.90
2019-04-21T13:13:08.216Z,19.00
2019-04-21T13:15:40.921Z,18.90
2019-04-21T13:18:12.457Z,18.90
2019-04-21T13:20:46.098Z,18.90
2019-04-21T13:23:18.911Z,18.80
2019-04-21T13:25:50.022Z,19.10
2019-04-21T13:28:20.777Z,18.50
2019-04-21T13:30:52.462Z,18.30
2019-04-21T13:33:22.974Z,18.40
2019-04-21T13:35:57.121Z,18.60
2019-04-21T13:38:36.378Z,19.10
2019-04-21T13:41:27.300Z,19.20
2019-04-21T13:43:43.362Z,19.10
2019-04-21T13:46:13.231Z,19.50
2019-04-21T13:48:48.710Z,19.50
2019-04-21T13:51:19.459Z,19.70
2019-04-21T13:53:49.519Z,19.30
2019-04-21T13:56:20.346Z,19.00
2019-04-21T13:58:50.488Z,18.80
2019-04-21T14:01:21.422Z,19.00
2019-04-21T14:03:53.548Z,19.00
2019-04-21T14:06:24.583Z,19.20
2019-04-21T14:08:56.907Z,19.30
2019-04-21T14:11:27.215Z,19.40
2019-04-21T14:13:58.509Z,19.40
2019-04-21T14:16:29.543Z,19.00
2019-04-21T14:18:59.629Z,19.10
2019-04-21T14:21:29.499Z,19.20
2019-04-21T14:24:01.269Z,19.30
2019-04-21T14:26:32.143Z,19.40
2019-04-21T14:29:03.609Z,19.70
2019-04-21T14:31:34.663Z,19.40
2019-04-21T14:34:06.000Z,19.10
2019-04-21T14:36:37.031Z,19.20
2019-04-21T14:39:12.832Z,19.00
2019-04-21T14:41:43.958Z,19.30
2019-04-21T14:44:15.154Z,19.60
2019-04-21T14:47:05.008Z,19.10
2019-04-21T14:49:53.195Z,18.90
2019-04-21T14:52:26.801Z,18.40
2019-04-21T14:55:12.191Z,18.50
2019-04-21T14:57:43.148Z,18.60
2019-04-21T15:00:15.356Z,18.60
2019-04-21T15:02:45.546Z,18.80
2019-04-21T15:05:15.701Z,19.00
2019-04-21T15:07:45.553Z,18.90
2019-04-21T15:10:20.821Z,19.00
2019-04-21T15:12:47.739Z,18.90
2019-04-21T15:15:18.100Z,18.90
2019-04-21T15:17:49.204Z,19.00
2019-04-21T15:20:20.212Z,19.00
2019-04-21T15:22:50.872Z,18.90
2019-04-21T15:25:21.916Z,18.70
2019-04-21T15:27:54.864Z,18.80
2019-04-21T15:30:26.858Z,18.60
2019-04-21T15:32:58.018Z,18.50
2019-04-21T15:35:28.996Z,18.80
2019-04-21T15:38:00.021Z,19.00
2019-04-21T15:40:41.766Z,18.90
2019-04-21T15:43:04.393Z,19.00
2019-04-21T15:45:34.940Z,18.80
2019-04-21T15:48:04.947Z,18.60
2019-04-21T15:50:35.685Z,18.60
2019-04-21T15:53:09.720Z,18.40
2019-04-21T15:55:57.542Z,18.30
2019-04-21T15:58:43.407Z,18.40
2019-04-21T16:01:40.903Z,18.50
2019-04-21T16:04:10.886Z,18.50
2019-04-21T16:06:41.561Z,18.60
2019-04-21T16:09:14.986Z,18.50
2019-04-21T16:11:44.042Z,18.50
2019-04-21T16:14:14.510Z,18.50
2019-04-21T16:16:45.468Z,18.40
2019-04-21T16:19:16.476Z,18.40
2019-04-21T16:21:46.633Z,18.50
2019-04-21T16:24:16.501Z,18.30
2019-04-21T16:26:46.860Z,18.20
2019-04-21T16:29:17.400Z,18.30
2019-04-21T16:31:47.227Z,18.10
2019-04-21T16:34:19.847Z,18.00
2019-04-21T16:36:55.871Z,18.00
2019-04-21T16:39:27.327Z,18.00
2019-04-21T16:42:00.308Z,18.00
2019-04-21T16:44:31.308Z,17.90
2019-04-21T16:47:01.429Z,17.90
2019-04-21T16:49:31.800Z,17.80
2019-04-21T16:52:18.345Z,17.90
2019-04-21T16:54:51.878Z,17.80
2019-04-21T16:57:35.924Z,17.80
2019-04-21T17:00:13.812Z,17.70
2019-04-21T17:02:46.446Z,17.80
2019-04-21T17:05:16.358Z,17.70
2019-04-21T17:07:47.133Z,17.60
2019-04-21T17:10:18.655Z,17.60
2019-04-21T17:12:51.309Z,17.50
2019-04-21T17:15:38.393Z,17.50
2019-04-21T17:18:10.215Z,17.50
2019-04-21T17:20:37.069Z,17.50
2019-04-21T17:22:59.653Z,17.40
2019-04-21T17:25:29.906Z,17.40
2019-04-21T17:28:01.762Z,17.40
2019-04-21T17:30:32.572Z,17.30
2019-04-21T17:33:03.557Z,17.30
2019-04-21T17:35:35.145Z,17.20
2019-04-21T17:38:05.889Z,17.10
2019-04-21T17:40:35.838Z,17.10
2019-04-21T17:43:13.872Z,17.00
2019-04-21T17:45:41.408Z,17.00
2019-04-21T17:48:14.931Z,16.90
2019-04-21T17:51:01.771Z,16.80
2019-04-21T17:53:51.151Z,16.70
2019-04-21T17:56:41.379Z,16.50
2019-04-21T17:59:10.319Z,16.60
2019-04-21T18:01:45.157Z,16.50
2019-04-21T18:04:15.534Z,16.50
2019-04-21T18:06:50.191Z,16.40
2019-04-21T18:09:31.550Z,16.30
2019-04-21T18:12:00.645Z,16.10
2019-04-21T18:14:13.689Z,16.10
2019-04-21T18:16:47.873Z,16.30
2019-04-21T18:19:18.836Z,16.20
2019-04-21T18:21:59.450Z,16.20
2019-04-21T18:24:35.323Z,16.10
2019-04-21T18:27:02.045Z,16.10
2019-04-21T18:29:29.708Z,16.00
2019-04-21T18:32:01.009Z,15.90
2019-04-21T18:34:55.239Z,15.90
2019-04-21T18:38:07.739Z,15.80
2019-04-21T18:40:38.927Z,15.60
2019-04-21T18:43:56.742Z,15.60
2019-04-21T18:46:39.776Z,15.50
2019-04-21T18:49:13.224Z,15.50
2019-04-21T18:52:03.595Z,15.50
2019-04-21T18:54:54.762Z,15.50
2019-04-21T18:57:19.520Z,15.50
2019-04-21T18:59:47.302Z,15.40
2019-04-21T19:02:18.990Z,15.40
2019-04-21T19:04:48.441Z,15.30
2019-04-21T19:07:37.585Z,15.20
2019-04-21T19:13:09.411Z,15.40
2019-04-21T19:15:18.286Z,15.30
2019-04-21T19:18:16.440Z,15.30
2019-04-21T19:20:34.870Z,15.10
2019-04-21T19:22:51.751Z,15.00
2019-04-21T19:25:24.081Z,15.00
2019-04-21T19:27:56.977Z,14.80
2019-04-21T19:30:36.798Z,14.70
2019-04-21T19:33:03.935Z,14.60
2019-04-21T19:35:17.321Z,14.40
2019-04-21T19:37:54.209Z,14.30
2019-04-21T19:40:37.611Z,14.20
2019-04-21T19:43:03.404Z,14.20
2019-04-21T19:45:40.900Z,14.20
2019-04-21T19:48:15.330Z,14.10
2019-04-21T19:50:51.518Z,14.10
2019-04-21T19:53:24.287Z,14.10
2019-04-21T19:55:42.321Z,14.10
2019-04-21T19:58:14.793Z,14.10
2019-04-21T20:00:48.498Z,14.10
2019-04-21T20:03:22.410Z,14.00
2019-04-21T20:06:00.919Z,13.90
2019-04-21T20:08:37.571Z,13.70
2019-04-21T20:11:18.282Z,13.50
2019-04-21T20:14:14.113Z,13.40
2019-04-21T20:16:19.178Z,13.50
2019-04-21T20:18:39.761Z,13.50
2019-04-21T20:21:04.053Z,13.50
2019-04-21T20:23:35.937Z,13.60
2019-04-21T20:26:11.501Z,13.50
2019-04-21T20:28:48.939Z,13.50
2019-04-21T20:31:30.110Z,13.30
2019-04-21T20:34:21.216Z,13.30
2019-04-21T20:36:53.723Z,13.10
2019-04-21T20:39:13.926Z,12.90
2019-04-21T20:41:56.245Z,12.90
2019-04-21T20:44:32.578Z,12.90
2019-04-21T20:47:03.927Z,12.90
2019-04-21T20:49:37.585Z,12.80
2019-04-21T20:54:48.205Z,12.70
2019-04-21T20:57:24.197Z,12.60
2019-04-21T20:59:59.775Z,12.70
2019-04-21T21:02:36.306Z,12.60
2019-04-21T21:04:57.185Z,12.60
2019-04-21T21:07:45.826Z,12.40
2019-04-21T21:10:19.679Z,12.40
2019-04-21T21:15:10.098Z,12.40
2019-04-21T21:18:01.438Z,12.30
2019-04-21T21:20:26.151Z,12.10
2019-04-21T21:22:55.780Z,11.90
2019-04-21T21:25:40.079Z,11.80
2019-04-21T21:27:58.206Z,11.70
2019-04-21T21:30:36.219Z,11.60
2019-04-21T21:33:12.798Z,11.50
2019-04-21T21:35:37.946Z,11.40
2019-04-21T21:38:19.953Z,11.40
2019-04-21T21:40:47.992Z,11.40
2019-04-21T21:43:08.143Z,11.50
2019-04-21T21:45:42.592Z,11.40
2019-04-21T21:48:23.217Z,11.40
2019-04-21T21:50:45.921Z,11.50
2019-04-21T21:53:16.476Z,11.40
2019-04-21T21:55:42.631Z,11.50
2019-04-21T21:58:14.290Z,11.30
2019-04-21T22:00:49.945Z,11.30
2019-04-21T22:03:25.423Z,11.30
2019-04-21T22:05:57.296Z,11.20
2019-04-21T22:08:20.694Z,11.10
2019-04-21T22:10:50.877Z,10.90
2019-04-21T22:13:27.039Z,10.90
2019-04-21T22:15:59.469Z,10.50
2019-04-21T22:18:40.911Z,10.50
2019-04-21T22:21:07.626Z,10.70
2019-04-21T22:23:42.577Z,10.20
2019-04-21T22:25:57.757Z,10.30
2019-04-21T22:28:27.683Z,10.60
2019-04-21T22:30:58.643Z,10.70
2019-04-21T22:33:33.309Z,10.90
2019-04-21T22:36:09.997Z,11.00
2019-04-21T22:38:50.952Z,10.80
2019-04-21T22:41:15.686Z,10.90
2019-04-21T22:43:40.609Z,10.80
2019-04-21T22:46:07.248Z,10.80
2019-04-21T22:48:38.713Z,10.80
2019-04-21T22:51:19.212Z,10.80
2019-04-21T22:53:44.805Z,10.70
2019-04-21T22:56:18.495Z,10.60
2019-04-21T22:58:44.824Z,10.60
2019-04-21T23:01:18.980Z,10.60
2019-04-21T23:03:53.595Z,10.70
2019-04-21T23:06:23.371Z,10.70
2019-04-21T23:08:51.214Z,10.70
2019-04-21T23:11:21.541Z,10.80
2019-04-21T23:13:59.010Z,10.60
2019-04-21T23:16:27.060Z,10.80
2019-04-21T23:19:17.260Z,10.80
2019-04-21T23:21:51.237Z,10.70
2019-04-21T23:24:22.179Z,10.60
2019-04-21T23:26:50.745Z,10.60
2019-04-21T23:29:33.456Z,10.50
2019-04-21T23:31:57.950Z,10.50
2019-04-21T23:34:10.839Z,10.50
2019-04-21T23:36:49.631Z,10.50
2019-04-21T23:39:16.028Z,10.40
2019-04-21T23:41:50.408Z,10.30
2019-04-21T23:44:17.216Z,10.30
2019-04-21T23:46:45.907Z,10.20
2019-04-21T23:49:31.932Z,10.30
2019-04-21T23:51:54.669Z,10.30
2019-04-21T23:54:19.553Z,10.20
2019-04-21T23:56:49.710Z,10.30
2019-04-21T23:59:20.617Z,10.20
